Time;durP1;ratioP1;P1;durP2;ratioP2;P2;SDS_P1;SDS_P2;PMS_P1;PMS_P2;Temp;Humidity;BMP_temperature;BMP_pressure;BME280_temperature;BME280_humidity;BME280_pressure;Samples;Min_cycle;Max_cycle;Signal;HPM_P1;HPM_P2
2023/04/20 00:00:43;;;;;;;26.75;21.65;;;13.70;99.90;;;;;;4593048;19;20014;-31
2023/04/20 00:02:21;;;;;;;26.23;21.87;;;13.70;99.90;;;;;;4593018;19;20017;-30
2023/04/20 00:03:53;;;;;;;24.40;21.17;;;13.70;99.90;;;;;;4593421;19;20313;-30
2023/04/20 00:05:24;;;;;;;23.85;20.85;;;13.70;99.90;;;;;;4592026;19;20022;-31
2023/04/20 00:06:58;;;;;;;27.98;22.08;;;13.70;99.90;;;;;;4592539;19;20475;-30
2023/04/20 00:08:29;;;;;;;27.90;23.43;;;13.70;99.90;;;;;;4593062;19;20015;-30
2023/04/20 00:10:01;;;;;;;30.52;25.30;;;13.70;99.90;;;;;;4590620;19;20022;-30
2023/04/20 00:11:32;;;;;;;26.02;22.63;;;13.70;99.90;;;;;;4592543;19;20029;-30
2023/04/20 00:13:04;;;;;;;28.45;20.85;;;13.70;99.90;;;;;;4592432;19;20025;-31
2023/04/20 00:14:35;;;;;;;29.65;20.20;;;13.80;99.90;;;;;;4589842;19;20082;-31
2023/04/20 00:16:06;;;;;;;31.17;21.35;;;13.80;99.90;;;;;;4591482;19;20014;-31
2023/04/20 00:17:38;;;;;;;30.90;23.02;;;13.80;99.90;;;;;;4592264;19;20010;-31
2023/04/20 00:19:09;;;;;;;27.42;21.92;;;13.80;99.90;;;;;;4592764;19;20018;-30
2023/04/20 00:20:41;;;;;;;28.67;21.10;;;13.80;99.90;;;;;;4590482;19;20054;-31
2023/04/20 00:22:12;;;;;;;27.02;20.40;;;13.80;99.90;;;;;;4592685;19;20010;-31
2023/04/20 00:23:43;;;;;;;26.70;21.40;;;13.80;99.90;;;;;;4592313;19;20528;-30
2023/04/20 00:25:14;;;;;;;28.42;23.13;;;13.80;99.90;;;;;;4592723;19;20006;-30
2023/04/20 00:26:46;;;;;;;27.95;23.45;;;13.80;99.90;;;;;;4592961;19;20490;-30
2023/04/20 00:28:17;;;;;;;28.27;22.95;;;13.80;99.90;;;;;;4592757;19;20372;-30
2023/04/20 00:29:48;;;;;;;26.58;23.67;;;13.80;99.90;;;;;;4591119;19;20062;-30
2023/04/20 00:31:19;;;;;;;29.40;23.23;;;13.80;99.90;;;;;;4592210;19;20479;-30
2023/04/20 00:32:50;;;;;;;29.20;23.80;;;13.80;99.90;;;;;;4591804;19;20039;-31
2023/04/20 00:34:21;;;;;;;33.53;25.42;;;13.80;99.90;;;;;;4592432;19;20006;-30
2023/04/20 00:35:53;;;;;;;34.45;27.05;;;13.80;99.90;;;;;;4592303;19;20025;-30
2023/04/20 00:37:24;;;;;;;35.83;26.83;;;13.80;99.90;;;;;;4592321;19;20018;-30
2023/04/20 00:38:55;;;;;;;32.85;25.20;;;13.80;99.90;;;;;;4591143;19;20010;-31
2023/04/20 00:40:26;;;;;;;28.65;23.65;;;13.80;99.90;;;;;;4590478;19;20007;-31
2023/04/20 00:42:05;;;;;;;26.88;21.40;;;13.80;99.90;;;;;;4592290;19;20020;-30
2023/04/20 00:43:36;;;;;;;26.07;20.73;;;13.80;99.90;;;;;;4592602;19;20010;-31
2023/04/20 00:45:09;;;;;;;25.92;20.60;;;13.80;99.90;;;;;;4589910;19;20021;-30
2023/04/20 00:46:40;;;;;;;28.23;21.83;;;13.80;99.90;;;;;;4591321;19;20006;-31
2023/04/20 00:48:11;;;;;;;32.75;24.75;;;13.80;99.90;;;;;;4592065;19;20352;-31
2023/04/20 00:49:43;;;;;;;28.67;23.58;;;13.80;99.90;;;;;;4590372;19;20026;-31
2023/04/20 00:51:14;;;;;;;28.42;23.10;;;13.90;99.90;;;;;;4591105;19;20002;-31
2023/04/20 00:52:45;;;;;;;31.63;22.65;;;13.90;99.90;;;;;;4590777;19;20010;-31
2023/04/20 00:54:16;;;;;;;30.13;23.40;;;13.90;99.90;;;;;;4590900;19;20031;-30
2023/04/20 00:55:47;;;;;;;26.33;20.63;;;13.90;99.90;;;;;;4592496;19;20011;-30
2023/04/20 00:57:22;;;;;;;23.90;19.40;;;13.90;99.90;;;;;;4591214;19;20074;-30
2023/04/20 00:58:54;;;;;;;24.27;19.43;;;13.90;99.90;;;;;;4591552;19;20011;-31
2023/04/20 01:00:26;;;;;;;25.08;20.70;;;13.90;99.90;;;;;;4590164;19;20015;-31
2023/04/20 01:01:57;;;;;;;24.30;20.53;;;13.90;99.90;;;;;;4592255;19;20092;-31
2023/04/20 01:03:28;;;;;;;24.38;20.25;;;13.90;99.90;;;;;;4592258;19;20021;-31
2023/04/20 01:05:00;;;;;;;23.77;18.58;;;13.90;99.90;;;;;;4591869;19;20003;-31
2023/04/20 01:06:31;;;;;;;25.17;19.90;;;13.90;99.90;;;;;;4590164;19;20060;-31
2023/04/20 01:08:03;;;;;;;26.23;19.52;;;13.90;99.90;;;;;;4592056;19;19998;-30
2023/04/20 01:09:37;;;;;;;26.50;21.15;;;13.90;99.90;;;;;;4590828;19;20010;-30
2023/04/20 01:11:08;;;;;;;25.23;19.63;;;13.90;99.90;;;;;;4590282;19;20014;-32
2023/04/20 01:12:40;;;;;;;25.48;20.50;;;13.80;99.90;;;;;;4591009;19;20590;-30
2023/04/20 01:14:13;;;;;;;22.80;18.40;;;13.80;99.90;;;;;;4590455;19;20074;-30
2023/04/20 01:15:45;;;;;;;;;;;13.80;99.90;;;;;;4591778;19;20074;-30
2023/04/20 01:17:16;;;;;;;21.40;18.33;;;13.80;99.90;;;;;;4591635;19;19915;-30
2023/04/20 01:18:50;;;;;;;22.57;18.17;;;13.80;99.90;;;;;;4591426;19;20500;-31
2023/04/20 01:20:22;;;;;;;22.70;18.43;;;13.90;99.90;;;;;;4590587;19;20353;-30
2023/04/20 01:21:55;;;;;;;24.23;19.90;;;13.90;99.90;;;;;;4591178;19;20028;-31
2023/04/20 01:23:26;;;;;;;;;;;13.90;99.90;;;;;;4592603;19;20010;-30
2023/04/20 01:24:57;;;;;;;23.30;18.60;;;13.90;99.90;;;;;;4591363;19;19941;-31
2023/04/20 01:37:09;;;;;;;23.90;17.37;;;13.90;99.90;;;;;;4590332;19;19995;-30
2023/04/20 01:38:41;;;;;;;22.63;17.13;;;13.90;99.90;;;;;;4590888;19;20484;-30
2023/04/20 01:40:12;;;;;;;21.08;16.50;;;13.90;99.90;;;;;;4590350;19;20016;-30
2023/04/20 01:41:44;;;;;;;19.37;16.10;;;13.80;99.90;;;;;;4591472;19;19998;-30
2023/04/20 01:43:16;;;;;;;21.10;17.30;;;13.80;99.90;;;;;;4591178;19;20329;-31
2023/04/20 01:44:47;;;;;;;;;;;13.80;99.90;;;;;;4592002;19;20460;-31
2023/04/20 01:46:18;;;;;;;21.80;19.07;;;13.80;99.90;;;;;;4588811;19;19946;-30
2023/04/20 01:47:50;;;;;;;26.35;22.35;;;13.80;99.90;;;;;;4590483;19;20014;-30
2023/04/20 01:49:21;;;;;;;26.67;21.95;;;13.80;99.90;;;;;;4590124;19;20017;-31
2023/04/20 01:50:52;;;;;;;26.90;22.15;;;13.80;99.90;;;;;;4590669;19;20037;-30
2023/04/20 01:52:24;;;;;;;29.40;22.48;;;13.80;99.90;;;;;;4591017;19;20509;-31
2023/04/20 01:53:55;;;;;;;24.90;22.17;;;13.80;99.90;;;;;;4591415;19;20498;-31
2023/04/20 01:55:26;;;;;;;23.05;20.60;;;13.80;99.90;;;;;;4589269;19;20019;-30
2023/04/20 01:56:57;;;;;;;24.60;22.00;;;13.80;99.90;;;;;;4587996;19;20413;-30
2023/04/20 01:58:30;;;;;;;24.88;21.33;;;13.80;99.90;;;;;;4589893;19;20010;-30
2023/04/20 02:00:03;;;;;;;33.03;25.73;;;13.80;99.90;;;;;;4590382;19;20006;-31
2023/04/20 02:01:34;;;;;;;31.90;26.57;;;13.80;99.90;;;;;;4590209;19;20037;-31
2023/04/20 02:03:06;;;;;;;31.70;25.85;;;13.80;99.90;;;;;;4590384;19;20356;-31
2023/04/20 02:04:38;;;;;;;23.37;19.87;;;13.80;99.90;;;;;;4590890;19;20409;-31
2023/04/20 02:06:09;;;;;;;20.80;17.67;;;13.80;99.90;;;;;;4591185;19;20014;-30
2023/04/20 02:07:42;;;;;;;21.30;17.83;;;13.80;99.90;;;;;;4590278;19;20010;-31
2023/04/20 02:09:14;;;;;;;20.90;17.73;;;13.80;99.90;;;;;;4588871;19;20500;-31
2023/04/20 02:10:47;;;;;;;20.43;18.20;;;13.80;99.90;;;;;;4590329;19;20021;-30
2023/04/20 02:12:18;;;;;;;20.55;17.48;;;13.80;99.90;;;;;;4591025;19;20033;-31
2023/04/20 02:13:50;;;;;;;19.50;16.87;;;13.80;99.90;;;;;;4590253;19;20078;-31
2023/04/20 02:15:23;;;;;;;18.70;15.47;;;13.90;99.90;;;;;;4590800;19;20011;-31
2023/04/20 02:16:54;;;;;;;21.75;17.35;;;13.90;99.90;;;;;;4590897;19;20119;-31
2023/04/20 02:18:25;;;;;;;19.10;16.77;;;13.90;99.90;;;;;;4590031;19;20030;-31
2023/04/20 02:21:46;;;;;;;18.90;15.93;;;14.00;99.90;;;;;;4590004;19;20044;-30
2023/04/20 02:23:17;;;;;;;19.90;16.40;;;13.90;99.90;;;;;;4590995;19;20464;-31
2023/04/20 02:24:49;;;;;;;19.27;14.73;;;14.00;99.90;;;;;;4591390;19;20010;-30
2023/04/20 02:26:22;;;;;;;17.43;14.57;;;13.90;99.90;;;;;;4590514;19;20007;-30
2023/04/20 02:27:53;;;;;;;22.15;16.92;;;13.90;99.90;;;;;;4590276;19;20360;-31
2023/04/20 02:29:25;;;;;;;22.73;17.02;;;13.90;99.90;;;;;;4590090;19;20352;-31
2023/04/20 02:30:56;;;;;;;23.90;18.23;;;14.00;99.90;;;;;;4586555;19;20011;-31
2023/04/20 02:32:42;;;;;;;22.73;19.80;;;14.00;99.90;;;;;;4589046;19;20028;-31
2023/04/20 02:34:14;;;;;;;20.40;15.95;;;14.00;99.90;;;;;;4590100;19;20018;-30
2023/04/20 02:35:46;;;;;;;17.70;15.00;;;14.00;99.90;;;;;;4589294;19;20014;-31
2023/04/20 02:37:16;;;;;;;18.98;16.73;;;14.00;99.90;;;;;;4590304;19;20344;-31
2023/04/20 02:38:48;;;;;;;17.92;15.98;;;14.00;99.90;;;;;;4591263;19;20376;-30
2023/04/20 02:40:20;;;;;;;17.97;16.07;;;14.00;99.90;;;;;;4589222;19;20813;-31
2023/04/20 02:41:52;;;;;;;17.80;15.90;;;14.00;99.90;;;;;;4592941;19;20018;-31
2023/04/20 02:43:24;;;;;;;;;;;14.00;99.90;;;;;;4595809;19;20086;-31
2023/04/20 02:44:55;;;;;;;16.97;14.70;;;14.00;99.90;;;;;;4593181;19;19929;-30
2023/04/20 02:46:26;;;;;;;18.48;15.30;;;14.00;99.90;;;;;;4595250;19;20471;-31
2023/04/20 02:47:57;;;;;;;17.25;13.68;;;14.00;99.90;;;;;;4595066;19;20023;-30
2023/04/20 02:49:29;;;;;;;;;;;14.00;99.90;;;;;;4594614;19;20014;-31
2023/04/20 02:51:00;;;;;;;16.73;14.10;;;14.00;99.90;;;;;;4594233;19;20289;-31
2023/04/20 02:52:31;;;;;;;16.45;13.75;;;14.00;99.90;;;;;;4594739;19;20014;-31
2023/04/20 02:54:02;;;;;;;17.20;13.75;;;14.00;99.90;;;;;;4593821;19;20333;-30
2023/04/20 02:55:35;;;;;;;16.10;14.13;;;14.00;99.90;;;;;;4593743;19;20011;-31
2023/04/20 02:57:06;;;;;;;16.08;13.45;;;14.00;99.90;;;;;;4594157;19;20396;-31
2023/04/20 02:58:37;;;;;;;15.65;13.70;;;14.10;99.90;;;;;;4592737;19;20476;-31
2023/04/20 03:00:09;;;;;;;15.38;12.73;;;14.00;99.90;;;;;;4592163;19;20010;-31
2023/04/20 03:01:40;;;;;;;;;;;14.10;99.90;;;;;;4596127;19;20407;-31
2023/04/20 03:03:11;;;;;;;16.10;13.23;;;14.00;99.90;;;;;;4593302;19;19978;-31
2023/04/20 03:04:42;;;;;;;16.02;13.35;;;14.10;99.90;;;;;;4593709;19;20102;-30
2023/04/20 03:06:14;;;;;;;17.00;12.77;;;14.10;99.90;;;;;;4593608;19;20526;-30
2023/04/20 03:07:45;;;;;;;19.58;13.90;;;14.00;99.90;;;;;;4593751;19;20060;-30
2023/04/20 03:09:17;;;;;;;17.42;13.00;;;14.10;99.90;;;;;;4593744;19;20031;-30
2023/04/20 03:10:48;;;;;;;15.47;12.57;;;14.00;99.90;;;;;;4593878;19;20038;-31
2023/04/20 03:12:21;;;;;;;17.17;13.47;;;14.00;99.90;;;;;;4594183;19;20464;-31
2023/04/20 03:13:52;;;;;;;13.70;11.57;;;14.00;99.90;;;;;;4594388;19;20488;-30
2023/04/20 03:15:24;;;;;;;16.03;13.80;;;13.90;99.90;;;;;;4591705;19;20433;-31
2023/04/20 03:16:56;;;;;;;17.83;14.07;;;13.90;99.90;;;;;;4592898;19;20010;-31
2023/04/20 03:18:28;;;;;;;16.83;14.03;;;13.90;99.90;;;;;;4592688;19;20499;-30
2023/04/20 03:20:00;;;;;;;16.37;13.10;;;14.00;99.90;;;;;;4591814;19;20018;-30
2023/04/20 03:21:32;;;;;;;24.70;19.20;;;13.90;99.90;;;;;;4594078;19;20504;-30
2023/04/20 03:23:04;;;;;;;22.23;16.63;;;14.00;99.90;;;;;;4594070;19;20366;-30
2023/04/20 03:24:36;;;;;;;20.07;15.73;;;13.90;99.90;;;;;;4593679;19;20362;-31
2023/04/20 03:26:08;;;;;;;19.47;14.40;;;14.00;99.90;;;;;;4592884;19;20354;-31
2023/04/20 03:27:40;;;;;;;17.10;14.33;;;14.00;99.90;;;;;;4593834;19;20033;-31
2023/04/20 03:29:11;;;;;;;13.85;12.35;;;14.00;99.90;;;;;;4593420;19;20010;-31
2023/04/20 03:30:43;;;;;;;15.70;12.38;;;14.00;99.90;;;;;;4593840;19;20010;-31
2023/04/20 03:32:14;;;;;;;15.38;11.70;;;14.00;99.90;;;;;;4593760;19;20011;-31
2023/04/20 03:49:24;;;;;;;14.27;11.60;;;13.90;99.90;;;;;;4589976;19;20495;-31
2023/04/20 03:50:55;;;;;;;12.33;10.23;;;13.90;99.90;;;;;;4592975;19;20017;-30
2023/04/20 03:52:26;;;;;;;22.30;17.27;;;13.90;99.90;;;;;;4593979;19;20030;-31
2023/04/20 03:53:57;;;;;;;24.02;17.90;;;13.80;99.90;;;;;;4593243;19;20006;-31
2023/04/20 03:55:29;;;;;;;24.02;17.80;;;13.80;99.90;;;;;;4591959;19;20366;-30
2023/04/20 03:57:01;;;;;;;23.08;18.30;;;13.80;99.90;;;;;;4592740;19;20018;-31
2023/04/20 03:58:31;;;;;;;;;;;13.80;99.90;;;;;;4594050;19;20006;-31
2023/04/20 04:00:03;;;;;;;14.73;12.07;;;13.80;99.90;;;;;;4592338;19;19919;-31
2023/04/20 04:01:37;;;;;;;17.15;13.20;;;13.80;99.90;;;;;;4593431;19;20333;-30
2023/04/20 04:03:09;;;;;;;21.30;14.10;;;13.80;99.90;;;;;;4593539;19;20371;-30
2023/04/20 04:04:40;;;;;;;16.30;13.53;;;13.90;99.90;;;;;;4592794;19;20010;-31
2023/04/20 04:06:11;;;;;;;15.95;12.88;;;13.80;99.90;;;;;;4591913;19;20007;-31
2023/04/20 04:07:42;;;;;;;15.82;12.18;;;13.80;99.90;;;;;;4592882;19;20033;-31
2023/04/20 04:09:14;;;;;;;17.70;14.13;;;13.80;99.90;;;;;;4593126;19;20013;-31
2023/04/20 04:10:45;;;;;;;17.85;13.45;;;13.80;99.90;;;;;;4592817;19;20030;-31
2023/04/20 04:12:16;;;;;;;17.75;13.90;;;13.80;99.90;;;;;;4592846;19;20010;-31
2023/04/20 04:14:06;;;;;;;15.07;12.73;;;13.80;99.90;;;;;;4593235;19;20018;-30
2023/04/20 04:15:37;;;;;;;19.07;13.83;;;13.80;99.90;;;;;;4593394;19;20017;-31
2023/04/20 04:17:08;;;;;;;17.60;13.23;;;13.80;99.90;;;;;;4592648;19;20021;-30
2023/04/20 04:18:42;;;;;;;15.40;13.73;;;13.80;99.90;;;;;;4592931;19;20017;-31
2023/04/20 04:20:13;;;;;;;15.53;12.40;;;13.80;99.90;;;;;;4590861;19;20017;-31
2023/04/20 04:21:44;;;;;;;14.93;12.32;;;13.80;99.90;;;;;;4592460;19;20802;-31
2023/04/20 04:23:16;;;;;;;17.98;13.18;;;13.80;99.90;;;;;;4592547;19;20010;-31
2023/04/20 04:24:47;;;;;;;16.90;12.32;;;13.80;99.90;;;;;;4592563;19;20010;-31
2023/04/20 04:26:23;;;;;;;17.80;13.30;;;13.80;99.90;;;;;;4593204;19;20369;-31
2023/04/20 04:27:54;;;;;;;17.17;13.60;;;13.80;99.90;;;;;;4592781;19;20333;-31
2023/04/20 04:29:25;;;;;;;17.15;12.55;;;13.80;99.90;;;;;;4592339;19;20062;-31
2023/04/20 04:30:56;;;;;;;16.08;13.20;;;13.80;99.90;;;;;;4592656;19;20070;-30
2023/04/20 04:32:28;;;;;;;15.48;12.70;;;13.90;99.90;;;;;;4591094;19;20349;-31
2023/04/20 04:33:59;;;;;;;18.15;12.63;;;13.80;99.90;;;;;;4592301;19;20019;-30
2023/04/20 04:35:30;;;;;;;14.27;12.48;;;13.80;99.90;;;;;;4592368;19;20014;-31
2023/04/20 04:37:01;;;;;;;15.75;11.70;;;13.90;99.90;;;;;;4593229;19;20017;-31
2023/04/20 04:38:32;;;;;;;15.00;11.90;;;13.90;99.90;;;;;;4592547;19;20010;-31
2023/04/20 04:40:06;;;;;;;17.73;12.85;;;13.90;99.90;;;;;;4591756;19;20460;-30
2023/04/20 04:41:37;;;;;;;16.10;13.07;;;13.90;99.90;;;;;;4592097;19;20491;-31
2023/04/20 04:43:11;;;;;;;14.93;12.25;;;13.90;99.90;;;;;;4592344;19;20037;-31
2023/04/20 04:44:42;;;;;;;15.93;12.20;;;13.90;99.90;;;;;;4592431;19;20047;-31
2023/04/20 04:46:13;;;;;;;16.13;12.48;;;13.90;99.90;;;;;;4592023;19;20472;-31
2023/04/20 04:47:45;;;;;;;14.15;12.02;;;13.90;99.90;;;;;;4592105;19;20084;-30
2023/04/20 04:49:16;;;;;;;13.52;11.68;;;14.00;99.90;;;;;;4591377;19;20386;-31
2023/04/20 04:50:47;;;;;;;15.43;11.10;;;14.00;99.90;;;;;;4592630;19;20496;-30
2023/04/20 04:52:18;;;;;;;16.23;12.63;;;14.00;99.90;;;;;;4591624;19;20052;-31
2023/04/20 04:53:49;;;;;;;16.13;12.95;;;14.00;99.90;;;;;;4592313;19;20011;-31
2023/04/20 04:55:20;;;;;;;13.07;11.45;;;14.00;99.90;;;;;;4592109;19;20011;-31
2023/04/20 04:56:51;;;;;;;14.13;11.70;;;13.90;99.90;;;;;;4592203;19;20050;-31
2023/04/20 04:58:22;;;;;;;13.73;12.02;;;14.00;99.90;;;;;;4592051;19;20070;-31
2023/04/20 05:00:28;;;;;;;14.90;11.20;;;14.00;99.90;;;;;;4591300;19;19998;-30
2023/04/20 05:02:18;;;;;;;13.43;11.67;;;14.00;99.90;;;;;;4589802;19;20018;-31
2023/04/20 05:04:07;;;;;;;14.67;12.03;;;14.00;99.90;;;;;;4591915;19;20015;-30
2023/04/20 05:05:58;;;;;;;13.97;11.67;;;14.00;99.90;;;;;;4592777;19;20002;-31
2023/04/20 05:07:29;;;;;;;13.93;10.87;;;14.00;99.90;;;;;;4592084;19;20021;-31
2023/04/20 05:09:00;;;;;;;15.02;11.73;;;14.00;99.90;;;;;;4591629;19;20468;-31
2023/04/20 05:10:31;;;;;;;13.23;10.95;;;14.00;99.90;;;;;;4591726;19;20029;-31
2023/04/20 05:12:02;;;;;;;13.38;11.38;;;14.00;99.90;;;;;;4592136;19;20380;-31
2023/04/20 05:13:33;;;;;;;12.93;11.30;;;14.00;99.90;;;;;;4584924;19;20033;-31
2023/04/20 05:15:05;;;;;;;13.32;11.30;;;14.00;99.90;;;;;;4590335;19;20361;-31
2023/04/20 05:16:36;;;;;;;13.07;11.68;;;14.10;99.90;;;;;;4592179;19;20018;-31
2023/04/20 05:18:07;;;;;;;13.50;11.05;;;14.00;99.90;;;;;;4591953;19;20007;-31
2023/04/20 05:19:39;;;;;;;13.30;11.70;;;14.00;99.90;;;;;;4589587;19;20007;-30
2023/04/20 05:21:10;;;;;;;14.13;11.98;;;14.00;99.90;;;;;;4590631;19;20078;-30
2023/04/20 05:22:41;;;;;;;15.88;12.13;;;14.00;99.90;;;;;;4592069;19;20010;-30
2023/04/20 05:24:13;;;;;;;12.85;11.45;;;14.00;99.90;;;;;;4590762;19;20464;-30
2023/04/20 05:25:44;;;;;;;15.05;11.73;;;14.10;99.90;;;;;;4590680;19;20515;-31
2023/04/20 05:27:17;;;;;;;14.20;10.83;;;14.10;99.90;;;;;;4590273;19;20014;-31
2023/04/20 05:28:48;;;;;;;15.05;11.15;;;14.10;99.90;;;;;;4589382;19;20031;-31
2023/04/20 05:30:19;;;;;;;13.43;11.63;;;14.10;99.90;;;;;;4590844;19;20078;-31
2023/04/20 05:31:51;;;;;;;14.82;11.68;;;14.10;99.90;;;;;;4590818;19;20036;-31
2023/04/20 05:33:23;;;;;;;14.35;11.30;;;14.10;99.90;;;;;;4589875;19;20029;-30
2023/04/20 05:34:54;;;;;;;15.30;12.47;;;14.10;99.90;;;;;;4589703;19;20079;-30
2023/04/20 05:36:28;;;;;;;14.80;11.93;;;14.10;99.90;;;;;;4591986;19;20006;-31
2023/04/20 05:38:01;;;;;;;16.77;13.67;;;14.10;99.90;;;;;;4590998;19;20023;-30
2023/04/20 05:39:32;;;;;;;15.57;12.63;;;14.10;99.90;;;;;;4590857;19;20491;-31
2023/04/20 05:41:05;;;;;;;15.77;13.83;;;14.10;99.90;;;;;;4591159;19;20070;-31
2023/04/20 05:42:37;;;;;;;;;;;14.10;99.90;;;;;;4590228;19;20026;-31
2023/04/20 05:44:08;;;;;;;17.47;15.63;;;14.10;99.90;;;;;;4589855;19;19918;-30
2023/04/20 05:45:40;;;;;;;18.30;14.88;;;14.10;99.90;;;;;;4590166;19;20026;-30
2023/04/20 05:47:12;;;;;;;14.70;13.10;;;14.10;99.90;;;;;;4590389;19;20011;-30
2023/04/20 05:48:43;;;;;;;18.13;13.77;;;14.10;99.90;;;;;;4590038;19;20031;-31
2023/04/20 05:50:14;;;;;;;16.92;13.55;;;14.10;99.90;;;;;;4589425;19;20109;-31
2023/04/20 05:51:45;;;;;;;17.42;12.57;;;14.10;99.90;;;;;;4590409;19;20014;-30
2023/04/20 05:53:17;;;;;;;13.80;11.77;;;14.10;99.90;;;;;;4590353;19;20021;-31
2023/04/20 05:54:48;;;;;;;;;;;14.10;99.90;;;;;;4591043;19;20018;-31
2023/04/20 05:56:20;;;;;;;14.55;10.18;;;14.10;99.90;;;;;;4589659;19;19934;-31
2023/04/20 05:57:51;;;;;;;21.75;19.40;;;14.10;99.90;;;;;;4591295;19;20364;-30
2023/04/20 05:59:22;;;;;;;37.92;33.80;;;14.10;99.90;;;;;;4589446;19;20037;-31
2023/04/20 06:00:54;;;;;;;27.58;22.95;;;14.10;99.90;;;;;;4587936;19;20514;-30
2023/04/20 06:02:25;;;;;;;25.17;19.90;;;14.10;99.90;;;;;;4590568;19;20017;-31
2023/04/20 06:03:56;;;;;;;20.40;18.30;;;14.20;99.90;;;;;;4589659;19;20026;-30
2023/04/20 06:05:28;;;;;;;23.08;20.70;;;14.10;99.90;;;;;;4589349;19;20014;-31
2023/04/20 06:06:59;;;;;;;18.13;16.27;;;14.10;99.90;;;;;;4590650;19;20018;-31
2023/04/20 06:08:30;;;;;;;19.20;14.88;;;14.10;99.90;;;;;;4589942;19;20067;-30
2023/04/20 06:10:04;;;;;;;15.23;12.57;;;14.20;99.90;;;;;;4588444;19;20027;-30
2023/04/20 06:11:35;;;;;;;;;;;14.10;99.90;;;;;;4590504;19;20588;-31
2023/04/20 06:13:06;;;;;;;45.30;35.03;;;14.10;99.90;;;;;;4588996;19;19927;-31
2023/04/20 06:14:37;;;;;;;37.08;28.02;;;14.10;99.90;;;;;;4589819;19;20018;-31
2023/04/20 06:16:10;;;;;;;39.43;31.97;;;14.20;99.90;;;;;;4588426;19;20022;-31
2023/04/20 06:17:43;;;;;;;27.57;21.27;;;14.20;99.90;;;;;;4590809;19;20018;-30
2023/04/20 06:19:14;;;;;;;15.95;11.52;;;14.20;99.90;;;;;;4590440;19;20011;-31
2023/04/20 06:20:46;;;;;;;13.95;11.25;;;14.20;99.90;;;;;;4589676;19;20035;-31
2023/04/20 06:22:18;;;;;;;15.97;10.83;;;14.20;99.90;;;;;;4589014;19;20011;-30
2023/04/20 06:23:49;;;;;;;15.48;10.88;;;14.20;99.90;;;;;;4589155;19;20333;-30
2023/04/20 06:25:21;;;;;;;13.37;10.73;;;14.20;99.90;;;;;;4590439;19;20047;-30
2023/04/20 06:26:54;;;;;;;14.97;11.77;;;14.20;99.90;;;;;;4589801;19;20086;-31
2023/04/20 06:28:26;;;;;;;15.77;13.43;;;14.20;99.90;;;;;;4589965;19;20018;-31
2023/04/20 06:29:57;;;;;;;15.55;12.20;;;14.30;99.90;;;;;;4590938;19;20070;-31
2023/04/20 06:31:28;;;;;;;13.77;11.13;;;14.30;99.90;;;;;;4589723;19;20031;-31
2023/04/20 06:33:02;;;;;;;14.93;11.80;;;14.40;99.90;;;;;;4588974;19;20102;-31
2023/04/20 06:34:33;;;;;;;12.47;10.47;;;14.40;99.90;;;;;;4589397;19;20021;-31
2023/04/20 06:36:07;;;;;;;15.23;11.90;;;14.40;99.90;;;;;;4588303;19;20024;-31
2023/04/20 06:37:39;;;;;;;14.10;11.97;;;14.40;99.90;;;;;;4589702;19;20341;-31
2023/04/20 06:39:10;;;;;;;14.17;11.37;;;14.50;99.90;;;;;;4590026;19;20014;-32
2023/04/20 06:40:43;;;;;;;12.67;10.47;;;14.50;99.90;;;;;;4588697;19;20070;-31
2023/04/20 06:42:14;;;;;;;17.05;11.10;;;14.50;99.90;;;;;;4590074;19;20482;-31
2023/04/20 06:43:46;;;;;;;16.65;10.85;;;14.50;99.90;;;;;;4589608;19;20102;-31
2023/04/20 06:45:19;;;;;;;22.33;17.30;;;14.50;99.90;;;;;;4589923;19;20011;-31
2023/04/20 06:46:50;;;;;;;17.95;15.63;;;14.50;99.90;;;;;;4589933;19;20377;-31
2023/04/20 06:48:21;;;;;;;16.05;12.93;;;14.60;99.90;;;;;;4590224;19;20338;-31
2023/04/20 06:49:52;;;;;;;15.80;11.10;;;14.60;99.90;;;;;;4588605;19;20366;-31
2023/04/20 06:51:25;;;;;;;16.00;11.82;;;14.60;99.90;;;;;;4588721;19;20010;-31
2023/04/20 06:53:00;;;;;;;12.63;11.13;;;14.60;99.90;;;;;;4588915;19;20070;-30
2023/04/20 07:25:41;;;;;;;15.87;12.90;;;14.80;99.90;;;;;;4587476;19;19994;-31
2023/04/20 07:27:12;;;;;;;16.03;11.50;;;14.80;99.90;;;;;;4593747;19;20022;-30
2023/04/20 07:28:46;;;;;;;13.70;9.57;;;14.80;99.90;;;;;;4592495;19;20349;-30
2023/04/20 07:30:19;;;;;;;12.13;9.77;;;14.80;99.90;;;;;;4592416;19;20356;-31
2023/04/20 07:31:53;;;;;;;13.03;10.07;;;14.80;99.90;;;;;;4593612;19;20014;-31
2023/04/20 07:33:24;;;;;;;16.25;10.52;;;14.80;99.90;;;;;;4594297;19;20009;-31
2023/04/20 07:35:08;;;;;;;16.20;11.20;;;14.80;99.90;;;;;;4592368;19;20042;-31
2023/04/20 07:36:40;;;;;;;12.63;9.47;;;14.80;99.90;;;;;;4593671;19;20018;-31
2023/04/20 07:38:14;;;;;;;10.95;9.75;;;14.80;99.90;;;;;;4592329;19;20010;-30
2023/04/20 07:39:46;;;;;;;11.60;9.77;;;14.80;99.90;;;;;;4593570;19;20451;-30
2023/04/20 07:41:21;;;;;;;13.40;11.43;;;14.80;99.90;;;;;;4592252;19;20010;-30
2023/04/20 07:42:52;;;;;;;16.20;14.33;;;14.80;99.90;;;;;;4593072;19;20011;-31
2023/04/20 07:44:25;;;;;;;17.20;13.83;;;14.80;99.90;;;;;;4593857;19;20017;-31
2023/04/20 07:45:57;;;;;;;19.60;16.17;;;14.80;99.90;;;;;;4593963;19;20489;-31
2023/04/20 07:47:30;;;;;;;13.90;11.33;;;14.80;99.90;;;;;;4592897;19;20022;-31
2023/04/20 07:49:02;;;;;;;15.10;10.93;;;14.80;99.90;;;;;;4591284;19;20018;-31
2023/04/20 07:50:35;;;;;;;14.07;10.43;;;14.80;99.90;;;;;;4592407;19;20015;-31
2023/04/20 07:52:09;;;;;;;11.83;10.00;;;14.80;99.90;;;;;;4593110;19;20039;-30
2023/04/20 07:53:42;;;;;;;14.00;9.67;;;14.70;99.90;;;;;;4592030;19;20028;-31
2023/04/20 07:55:16;;;;;;;11.40;8.47;;;14.70;99.90;;;;;;4592949;19;20010;-30
2023/04/20 07:56:48;;;;;;;13.70;9.33;;;14.70;99.90;;;;;;4593028;19;20018;-30
2023/04/20 07:58:20;;;;;;;10.50;8.03;;;14.70;99.90;;;;;;4593450;19;20073;-31
2023/04/20 07:59:51;;;;;;;10.95;8.40;;;14.80;99.90;;;;;;4591401;19;20006;-31
2023/04/20 08:01:24;;;;;;;13.77;8.82;;;14.80;99.90;;;;;;4592918;19;20019;-30
2023/04/20 08:02:57;;;;;;;10.48;8.68;;;14.90;99.90;;;;;;4593725;19;20003;-31
2023/04/20 08:04:30;;;;;;;11.20;8.73;;;14.90;99.90;;;;;;4592622;19;20336;-31
2023/04/20 08:06:01;;;;;;;14.00;10.23;;;14.90;99.90;;;;;;4591704;19;20388;-31
2023/04/20 08:07:33;;;;;;;;;;;14.90;99.90;;;;;;4592726;19;20015;-31
2023/04/20 08:09:04;;;;;;;13.27;9.40;;;15.00;99.90;;;;;;4592092;19;20257;-31
2023/04/20 08:10:37;;;;;;;8.93;8.00;;;15.00;99.90;;;;;;4593177;19;20468;-30
2023/04/20 08:12:08;;;;;;;14.25;10.18;;;15.00;99.90;;;;;;4592822;19;20025;-30
2023/04/20 08:13:40;;;;;;;14.70;11.57;;;15.00;99.90;;;;;;4592230;19;20014;-31
2023/04/20 08:15:13;;;;;;;12.03;9.27;;;15.00;99.90;;;;;;4592263;19;20010;-30
2023/04/20 08:16:45;;;;;;;12.23;9.27;;;15.00;99.90;;;;;;4591345;19;20074;-30
2023/04/20 08:18:16;;;;;;;11.85;8.57;;;15.00;99.90;;;;;;4592494;19;20007;-31
2023/04/20 08:19:47;;;;;;;15.00;9.73;;;15.00;99.90;;;;;;4592972;19;20010;-31
2023/04/20 08:21:22;;;;;;;14.90;9.57;;;15.00;99.90;;;;;;4592541;19;20022;-31
2023/04/20 08:22:55;;;;;;;11.27;8.50;;;15.00;99.90;;;;;;4592619;19;20015;-31
2023/04/20 08:24:27;;;;;;;;;;;15.00;99.90;;;;;;4592560;19;20055;-31
2023/04/20 08:25:59;;;;;;;11.48;8.02;;;15.10;99.90;;;;;;4592178;19;19990;-31
2023/04/20 08:27:32;;;;;;;11.47;8.60;;;15.00;99.90;;;;;;4593711;19;19998;-31
2023/04/20 08:29:05;;;;;;;11.02;9.48;;;15.10;99.90;;;;;;4591207;19;20019;-31
2023/04/20 08:30:39;;;;;;;10.48;8.15;;;15.10;99.90;;;;;;4591934;19;20051;-31
2023/04/20 08:32:12;;;;;;;13.00;8.82;;;15.10;99.90;;;;;;4591304;19;20019;-31
2023/04/20 08:33:44;;;;;;;14.25;9.50;;;15.20;99.90;;;;;;4592569;19;20010;-31
2023/04/20 08:35:16;;;;;;;10.80;8.60;;;15.10;99.90;;;;;;4591077;19;20379;-30
2023/04/20 08:36:50;;;;;;;11.53;8.60;;;15.10;99.90;;;;;;4591878;19;20011;-31
2023/04/20 08:38:23;;;;;;;10.43;7.75;;;15.20;99.90;;;;;;4592823;19;20006;-31
2023/04/20 08:39:55;;;;;;;15.75;12.60;;;15.20;99.90;;;;;;4590814;19;20082;-30
2023/04/20 08:41:26;;;;;;;17.35;13.35;;;15.20;99.90;;;;;;4591915;19;20014;-30
2023/04/20 08:42:58;;;;;;;13.70;9.73;;;15.30;99.90;;;;;;4592639;19;20028;-30
2023/04/20 08:44:33;;;;;;;15.60;10.68;;;15.20;99.90;;;;;;4591242;19;20010;-31
2023/04/20 08:46:07;;;;;;;13.88;12.20;;;15.20;99.90;;;;;;4592128;19;20014;-30
2023/04/20 08:47:39;;;;;;;16.92;12.93;;;15.20;99.90;;;;;;4590934;19;20345;-31
2023/04/20 08:49:12;;;;;;;13.63;11.18;;;15.30;99.90;;;;;;4590521;19;20228;-30